createdAt,value
2022-12-18T00:02:36.423Z,6.60
2022-12-18T00:05:52.427Z,6.65
2022-12-18T00:08:59.104Z,5.97
2022-12-18T00:15:22.359Z,7.72
2022-12-18T00:18:28.075Z,9.70
2022-12-18T00:21:34.266Z,7.60
2022-12-18T00:24:39.789Z,7.20
2022-12-18T00:27:45.212Z,7.45
2022-12-18T00:30:52.683Z,7.88
2022-12-18T00:33:58.968Z,9.18
2022-12-18T00:37:04.531Z,9.27
2022-12-18T00:40:10.897Z,8.60
2022-12-18T00:43:16.697Z,7.82
2022-12-18T00:46:22.085Z,8.35
2022-12-18T00:49:27.908Z,8.38
2022-12-18T00:52:34.043Z,14.30
2022-12-18T00:55:41.095Z,7.53
2022-12-18T00:58:46.571Z,6.82
2022-12-18T01:01:52.337Z,7.70
2022-12-18T01:04:59.784Z,8.25
2022-12-18T01:08:05.393Z,18.45
2022-12-18T01:11:21.893Z,7.53
2022-12-18T01:14:27.381Z,7.97
2022-12-18T01:17:32.597Z,8.65
2022-12-18T01:20:40.354Z,8.20
2022-12-18T01:23:45.953Z,9.48
2022-12-18T01:26:51.470Z,6.82
2022-12-18T01:29:56.991Z,8.85
2022-12-18T01:33:02.680Z,11.88
2022-12-18T01:36:08.798Z,10.30
2022-12-18T01:39:16.258Z,5.88
2022-12-18T01:42:23.126Z,10.10
2022-12-18T01:45:30.775Z,8.40
2022-12-18T01:48:36.707Z,6.32
2022-12-18T01:51:43.267Z,7.35
2022-12-18T01:54:51.941Z,8.10
2022-12-18T01:58:02.028Z,6.55
2022-12-18T02:01:07.809Z,9.07
2022-12-18T02:04:28.425Z,7.30
2022-12-18T02:07:49.771Z,7.00
2022-12-18T02:11:11.910Z,9.40
2022-12-18T02:14:59.126Z,7.25
2022-12-18T02:18:12.540Z,7.22
2022-12-18T02:21:20.968Z,8.75
2022-12-18T02:24:35.424Z,7.88
2022-12-18T02:27:46.554Z,8.98
2022-12-18T02:30:54.736Z,9.82
2022-12-18T02:34:04.085Z,8.95
2022-12-18T02:37:17.776Z,8.32
2022-12-18T02:40:28.119Z,6.93
2022-12-18T02:43:33.897Z,9.85
2022-12-18T02:46:47.667Z,9.27
2022-12-18T02:50:28.226Z,9.65
2022-12-18T02:53:50.494Z,7.38
2022-12-18T02:57:02.795Z,8.98
2022-12-18T03:00:15.826Z,9.90
2022-12-18T03:03:41.854Z,7.70
2022-12-18T03:06:55.060Z,8.40
2022-12-18T03:10:02.674Z,10.05
2022-12-18T03:13:16.834Z,9.10
2022-12-18T03:16:30.706Z,7.15
2022-12-18T03:19:37.172Z,9.80
2022-12-18T03:22:47.708Z,9.63
2022-12-18T03:26:03.052Z,10.25
2022-12-18T03:29:42.075Z,10.13
2022-12-18T03:33:10.352Z,10.50
2022-12-18T03:36:20.157Z,13.02
2022-12-18T03:39:27.026Z,9.73
2022-12-18T03:42:38.646Z,9.88
2022-12-18T03:45:55.607Z,10.48
2022-12-18T03:52:18.437Z,12.55
2022-12-18T03:55:27.607Z,12.48
2022-12-18T03:58:41.478Z,15.80
2022-12-18T04:02:01.011Z,12.13
2022-12-18T04:05:10.479Z,12.18
2022-12-18T04:11:32.494Z,12.05
2022-12-18T04:14:40.971Z,12.10
2022-12-18T04:17:50.779Z,12.18
2022-12-18T04:20:59.955Z,12.87
2022-12-18T04:24:06.231Z,17.00
2022-12-18T04:27:14.141Z,15.13
2022-12-18T04:30:24.168Z,10.73
2022-12-18T04:33:29.993Z,12.50
2022-12-18T04:36:35.683Z,13.43
2022-12-18T04:39:41.234Z,10.55
2022-12-18T04:42:53.647Z,12.98
2022-12-18T04:46:07.333Z,13.73
2022-12-18T04:49:12.736Z,11.73
2022-12-18T04:52:18.264Z,10.25
2022-12-18T04:55:27.142Z,11.85
2022-12-18T04:58:32.463Z,12.35
2022-12-18T05:01:37.997Z,14.00
2022-12-18T05:04:43.756Z,11.82
2022-12-18T05:07:49.176Z,15.32
2022-12-18T05:11:10.143Z,11.13
2022-12-18T05:14:16.605Z,13.87
2022-12-18T05:17:21.921Z,12.13
2022-12-18T05:20:28.378Z,17.08
2022-12-18T05:23:37.674Z,10.77
2022-12-18T05:26:43.394Z,11.70
2022-12-18T05:29:48.813Z,16.75
2022-12-18T05:32:54.627Z,17.05
2022-12-18T05:36:03.384Z,11.40
2022-12-18T05:39:09.185Z,14.27
2022-12-18T05:42:14.729Z,11.85
2022-12-18T05:45:21.732Z,13.20
2022-12-18T05:48:27.399Z,18.15
2022-12-18T05:51:33.197Z,15.10
2022-12-18T05:54:38.876Z,12.60
2022-12-18T05:57:44.536Z,12.82
2022-12-18T06:00:49.784Z,14.07
2022-12-18T06:03:56.487Z,10.35
2022-12-18T06:07:04.774Z,13.95
2022-12-18T06:10:10.590Z,12.85
2022-12-18T06:13:16.529Z,12.00
2022-12-18T06:16:22.205Z,13.32
2022-12-18T06:19:28.065Z,11.52
2022-12-18T06:22:33.786Z,10.93
2022-12-18T06:25:40.704Z,11.88
2022-12-18T06:28:46.332Z,12.43
2022-12-18T06:31:51.857Z,14.68
2022-12-18T06:34:57.414Z,14.93
2022-12-18T06:38:03.782Z,13.68
2022-12-18T06:41:10.540Z,19.25
2022-12-18T06:44:16.153Z,14.48
2022-12-18T06:47:21.882Z,18.65
2022-12-18T06:50:28.027Z,14.45
2022-12-18T06:53:34.159Z,14.07
2022-12-18T06:56:39.962Z,13.70
2022-12-18T06:59:45.926Z,15.38
2022-12-18T07:02:51.615Z,12.40
2022-12-18T07:05:57.472Z,13.65
2022-12-18T07:09:02.851Z,11.70
2022-12-18T07:12:09.395Z,12.25
2022-12-18T07:15:15.248Z,12.43
2022-12-18T07:18:20.608Z,14.93
2022-12-18T07:21:26.663Z,11.77
2022-12-18T07:24:34.984Z,17.80
2022-12-18T07:27:41.301Z,10.77
2022-12-18T07:30:46.599Z,14.50
2022-12-18T07:33:53.598Z,14.98
2022-12-18T07:36:59.293Z,12.02
2022-12-18T07:40:05.032Z,13.35
2022-12-18T07:43:10.488Z,14.85
2022-12-18T07:46:17.467Z,12.23
2022-12-18T07:49:22.815Z,15.38
2022-12-18T07:52:28.325Z,13.45
2022-12-18T07:55:54.819Z,11.88
2022-12-18T07:59:00.467Z,12.60
2022-12-18T08:02:09.132Z,10.63
2022-12-18T08:05:14.858Z,13.98
2022-12-18T08:08:20.572Z,11.98
2022-12-18T08:11:28.281Z,13.25
2022-12-18T08:14:33.357Z,11.93
2022-12-18T08:17:38.712Z,12.13
2022-12-18T08:20:44.070Z,12.32
2022-12-18T08:23:51.153Z,10.60
2022-12-18T08:27:27.819Z,11.82
2022-12-18T08:30:23.806Z,12.25
2022-12-18T08:33:29.504Z,11.60
2022-12-18T08:36:34.744Z,15.35
2022-12-18T08:39:39.706Z,12.05
2022-12-18T08:43:03.051Z,13.30
2022-12-18T08:46:08.431Z,13.43
2022-12-18T08:49:13.894Z,12.68
2022-12-18T08:52:19.340Z,16.55
2022-12-18T08:55:24.505Z,12.43
2022-12-18T08:58:30.631Z,14.18
2022-12-18T09:01:36.607Z,11.30
2022-12-18T09:04:42.596Z,11.50
2022-12-18T09:07:48.188Z,11.23
2022-12-18T09:10:53.781Z,10.55
2022-12-18T09:14:01.287Z,11.70
2022-12-18T09:17:06.903Z,11.70
2022-12-18T09:20:12.448Z,11.32
2022-12-18T09:23:17.912Z,12.68
2022-12-18T09:26:25.500Z,13.55
2022-12-18T09:29:31.662Z,10.85
2022-12-18T09:32:36.845Z,12.20
2022-12-18T09:35:44.036Z,14.95
2022-12-18T09:38:49.666Z,14.77
2022-12-18T09:41:58.895Z,10.90
2022-12-18T09:45:04.875Z,9.25
2022-12-18T09:48:22.231Z,11.85
2022-12-18T09:51:41.149Z,11.68
2022-12-18T09:55:11.959Z,14.73
2022-12-18T09:58:27.125Z,16.80
2022-12-18T10:01:43.212Z,14.30
2022-12-18T10:05:13.131Z,11.05
2022-12-18T10:08:50.549Z,13.73
2022-12-18T10:11:59.096Z,10.02
2022-12-18T10:15:13.000Z,11.85
2022-12-18T10:18:34.875Z,12.65
2022-12-18T10:21:46.780Z,12.75
2022-12-18T10:25:07.434Z,10.77
2022-12-18T10:28:15.672Z,13.32
2022-12-18T10:31:25.164Z,9.38
2022-12-18T10:34:30.625Z,14.10
2022-12-18T10:37:36.327Z,11.82
2022-12-18T10:40:55.336Z,12.68
2022-12-18T10:44:22.661Z,12.93
2022-12-18T10:47:28.392Z,15.05
2022-12-18T10:51:09.854Z,8.98
2022-12-18T10:54:18.305Z,14.32
2022-12-18T10:57:37.391Z,11.50
2022-12-18T11:00:42.798Z,11.38
2022-12-18T11:04:03.061Z,9.13
2022-12-18T11:07:11.428Z,9.15
2022-12-18T11:10:20.970Z,9.38
2022-12-18T11:13:30.927Z,9.95
2022-12-18T11:17:03.003Z,13.23
2022-12-18T11:20:35.828Z,9.90
2022-12-18T11:23:52.840Z,9.98
2022-12-18T11:27:05.234Z,11.88
2022-12-18T11:33:25.541Z,11.25
2022-12-18T11:36:38.074Z,11.27
2022-12-18T11:39:55.815Z,9.27
2022-12-18T11:43:24.947Z,10.43
2022-12-18T11:46:37.565Z,11.05
2022-12-18T11:49:43.823Z,10.50
2022-12-18T11:52:55.943Z,13.35
2022-12-18T11:56:37.573Z,14.73
2022-12-18T11:59:53.927Z,9.25
2022-12-18T12:03:17.638Z,9.02
2022-12-18T12:06:39.917Z,12.23
2022-12-18T12:09:57.454Z,13.00
2022-12-18T12:13:17.971Z,11.23
2022-12-18T12:16:53.292Z,8.65
2022-12-18T12:20:07.326Z,10.82
2022-12-18T12:23:33.261Z,11.02
2022-12-18T12:27:23.517Z,9.68
2022-12-18T12:30:45.487Z,11.10
2022-12-18T12:34:10.513Z,13.05
2022-12-18T12:37:52.047Z,12.70
2022-12-18T12:41:28.496Z,11.10
2022-12-18T12:44:41.006Z,12.23
2022-12-18T12:50:55.501Z,9.50
2022-12-18T12:54:05.864Z,13.38
2022-12-18T12:57:24.095Z,11.07
2022-12-18T13:00:41.108Z,10.65
2022-12-18T13:04:24.679Z,10.93
2022-12-18T13:07:39.383Z,14.25
2022-12-18T13:10:45.218Z,16.20
2022-12-18T13:13:57.363Z,15.20
2022-12-18T13:17:16.423Z,11.73
2022-12-18T13:20:22.643Z,13.20
2022-12-18T13:23:40.523Z,12.23
2022-12-18T13:26:47.035Z,11.68
2022-12-18T13:29:53.217Z,16.15
2022-12-18T13:33:17.790Z,14.63
2022-12-18T13:36:34.836Z,14.43
2022-12-18T13:39:40.906Z,13.98
2022-12-18T13:43:04.989Z,17.15
2022-12-18T13:46:32.189Z,14.05
2022-12-18T13:49:41.465Z,12.77
2022-12-18T13:52:47.076Z,14.27
2022-12-18T13:55:53.466Z,19.35
2022-12-18T13:59:23.264Z,17.70
2022-12-18T14:02:31.315Z,15.35
2022-12-18T14:05:40.242Z,18.38
2022-12-18T14:08:49.313Z,15.23
2022-12-18T14:12:17.148Z,15.77
2022-12-18T14:15:33.112Z,15.77
2022-12-18T14:18:49.677Z,15.98
2022-12-18T14:21:55.437Z,19.25
2022-12-18T14:25:17.030Z,15.95
2022-12-18T14:28:27.451Z,15.85
2022-12-18T14:31:33.338Z,19.55
2022-12-18T14:34:38.741Z,14.95
2022-12-18T14:37:44.073Z,14.48
2022-12-18T14:40:53.699Z,14.98
2022-12-18T14:44:08.371Z,13.57
2022-12-18T14:47:17.950Z,18.50
2022-12-18T14:50:23.903Z,18.02
2022-12-18T14:54:01.876Z,20.48
2022-12-18T14:57:17.828Z,20.70
2022-12-18T15:00:25.934Z,21.63
2022-12-18T15:03:31.399Z,20.13
2022-12-18T15:06:39.073Z,25.58
2022-12-18T15:10:03.137Z,22.83
2022-12-18T15:13:11.299Z,27.10
2022-12-18T15:16:18.241Z,32.65
2022-12-18T15:19:40.076Z,30.77
2022-12-18T15:22:48.753Z,27.13
2022-12-18T15:26:03.673Z,25.98
2022-12-18T15:29:22.005Z,26.55
2022-12-18T15:32:27.526Z,33.75
2022-12-18T15:35:32.998Z,27.50
2022-12-18T15:38:38.454Z,31.67
2022-12-18T15:42:04.804Z,26.60
2022-12-18T15:45:14.065Z,24.77
2022-12-18T15:48:24.567Z,26.65
2022-12-18T15:51:38.207Z,31.23
2022-12-18T15:55:02.549Z,29.90
2022-12-18T15:58:09.366Z,31.00
2022-12-18T16:01:15.397Z,28.90
2022-12-18T16:04:23.270Z,31.52
2022-12-18T16:07:30.703Z,27.73
2022-12-18T16:10:36.931Z,30.83
2022-12-18T16:13:44.253Z,36.58
2022-12-18T16:16:52.821Z,33.45
2022-12-18T16:19:58.425Z,31.77
2022-12-18T16:23:03.842Z,31.67
2022-12-18T16:26:09.272Z,30.30
2022-12-18T16:29:14.762Z,31.48
2022-12-18T16:32:22.473Z,33.35
2022-12-18T16:35:29.719Z,33.67
2022-12-18T16:38:35.149Z,28.48
2022-12-18T16:41:40.521Z,33.53
2022-12-18T16:44:47.112Z,33.80
2022-12-18T16:47:52.606Z,34.47
2022-12-18T16:51:06.091Z,32.80
2022-12-18T16:54:15.970Z,37.80
2022-12-18T16:57:25.323Z,34.78
2022-12-18T17:00:31.651Z,40.28
2022-12-18T17:03:37.538Z,40.17
2022-12-18T17:06:45.317Z,39.53
2022-12-18T17:09:51.376Z,42.30
2022-12-18T17:12:57.108Z,35.95
2022-12-18T17:16:09.951Z,41.40
2022-12-18T17:19:17.607Z,40.30
2022-12-18T17:22:26.101Z,42.10
2022-12-18T17:25:31.128Z,47.33
2022-12-18T17:28:38.101Z,42.40
2022-12-18T17:31:44.093Z,37.78
2022-12-18T17:34:49.295Z,49.20
2022-12-18T17:37:55.059Z,41.63
2022-12-18T17:41:05.669Z,44.05
2022-12-18T17:44:11.192Z,44.90
2022-12-18T17:47:17.126Z,43.90
2022-12-18T17:50:22.632Z,58.05
2022-12-18T17:53:28.056Z,51.22
2022-12-18T17:56:33.686Z,51.67
2022-12-18T17:59:39.544Z,47.28
2022-12-18T18:02:45.366Z,53.72
2022-12-18T18:05:57.548Z,47.17
2022-12-18T18:09:03.650Z,49.63
2022-12-18T18:12:28.160Z,48.78
2022-12-18T18:15:33.711Z,53.90
2022-12-18T18:18:40.591Z,54.25
2022-12-18T18:21:48.243Z,52.85
2022-12-18T18:24:54.127Z,57.63
2022-12-18T18:28:00.587Z,50.20
2022-12-18T18:31:08.041Z,46.80
2022-12-18T18:34:42.525Z,47.10
2022-12-18T18:37:49.256Z,48.22
2022-12-18T18:41:05.422Z,44.63
2022-12-18T18:44:12.450Z,50.47
2022-12-18T18:47:17.876Z,50.05
2022-12-18T18:50:23.684Z,48.00
2022-12-18T18:53:29.494Z,53.00
2022-12-18T18:57:11.759Z,46.10
2022-12-18T19:00:00.639Z,49.22
2022-12-18T19:03:07.066Z,43.10
2022-12-18T19:06:28.422Z,54.45
2022-12-18T19:09:36.817Z,44.40
2022-12-18T19:13:00.943Z,56.60
2022-12-18T19:16:09.576Z,70.65
2022-12-18T19:19:18.223Z,62.33
2022-12-18T19:22:24.229Z,50.40
2022-12-18T19:25:38.346Z,66.10
2022-12-18T19:28:47.831Z,53.38
2022-12-18T19:31:53.789Z,83.22
2022-12-18T19:34:59.526Z,51.35
2022-12-18T19:38:05.443Z,42.28
2022-12-18T19:41:11.377Z,65.28
2022-12-18T19:44:18.435Z,71.72
2022-12-18T19:47:24.579Z,47.67
2022-12-18T19:50:30.322Z,99.25
2022-12-18T19:53:38.479Z,59.38
2022-12-18T19:56:44.302Z,63.95
2022-12-18T19:59:49.893Z,70.10
2022-12-18T20:03:02.469Z,74.70
2022-12-18T20:06:20.561Z,50.60
2022-12-18T20:09:26.651Z,58.35
2022-12-18T20:12:34.161Z,105.68
2022-12-18T20:15:45.015Z,106.60
2022-12-18T20:18:51.437Z,96.60
2022-12-18T20:21:58.161Z,61.50
2022-12-18T20:25:03.653Z,80.78
2022-12-18T20:28:09.873Z,129.60
2022-12-18T20:31:15.567Z,130.80
2022-12-18T20:34:21.391Z,126.93
2022-12-18T20:37:27.328Z,89.75
2022-12-18T20:40:34.639Z,123.97
2022-12-18T20:43:40.707Z,58.97
2022-12-18T20:46:46.706Z,101.13
2022-12-18T20:49:52.622Z,76.75
2022-12-18T20:52:58.123Z,141.57
2022-12-18T20:56:18.905Z,97.18
2022-12-18T20:59:27.595Z,89.18
2022-12-18T21:02:33.709Z,78.57
2022-12-18T21:05:40.079Z,54.08
2022-12-18T21:08:47.564Z,100.13
2022-12-18T21:12:14.192Z,117.03
2022-12-18T21:15:25.300Z,113.65
2022-12-18T21:18:34.063Z,81.53
2022-12-18T21:21:40.475Z,105.35
2022-12-18T21:24:46.856Z,90.93
2022-12-18T21:27:52.804Z,91.22
2022-12-18T21:30:58.928Z,106.82
2022-12-18T21:34:06.284Z,46.35
2022-12-18T21:37:11.821Z,80.47
2022-12-18T21:40:18.254Z,62.60
2022-12-18T21:43:46.933Z,41.13
2022-12-18T21:46:58.202Z,74.25
2022-12-18T21:50:08.065Z,101.28
2022-12-18T21:53:13.658Z,73.70
2022-12-18T21:56:19.563Z,145.32
2022-12-18T21:59:29.326Z,103.47
2022-12-18T22:02:35.198Z,37.40
2022-12-18T22:05:41.026Z,42.70
2022-12-18T22:08:46.622Z,64.72
2022-12-18T22:11:53.179Z,74.93
2022-12-18T22:14:59.122Z,51.10
2022-12-18T22:18:04.761Z,72.85
2022-12-18T22:21:29.867Z,53.55
2022-12-18T22:24:35.392Z,52.80
2022-12-18T22:27:41.106Z,95.72
2022-12-18T22:30:46.615Z,68.55
2022-12-18T22:33:52.130Z,47.17
2022-12-18T22:36:57.658Z,45.88
2022-12-18T22:40:04.479Z,52.30
2022-12-18T22:43:10.917Z,64.18
2022-12-18T22:46:19.699Z,64.82
2022-12-18T22:49:26.780Z,48.92
2022-12-18T22:52:32.420Z,56.13
2022-12-18T22:55:38.146Z,81.22
2022-12-18T22:58:44.481Z,68.05
2022-12-18T23:01:58.339Z,92.00
2022-12-18T23:05:10.719Z,54.10
2022-12-18T23:08:16.410Z,52.15
2022-12-18T23:11:21.885Z,39.67
2022-12-18T23:14:29.047Z,51.92
2022-12-18T23:17:37.087Z,47.67
2022-12-18T23:20:42.498Z,50.67
2022-12-18T23:23:49.118Z,60.92
2022-12-18T23:26:55.062Z,57.67
2022-12-18T23:30:00.747Z,48.28
2022-12-18T23:33:06.089Z,39.42
2022-12-18T23:36:13.196Z,54.10
2022-12-18T23:39:29.898Z,48.95
2022-12-18T23:42:37.320Z,61.03
2022-12-18T23:45:43.097Z,69.50
2022-12-18T23:48:49.451Z,54.90
2022-12-18T23:51:55.501Z,57.72
2022-12-18T23:55:00.943Z,50.88
2022-12-18T23:58:06.971Z,51.08
